« Back
NWS Peachtree City, Ga » Text Product » ATL Terminal Aerodrome Forecast


Printer-friendly Version
Current Version              Previous Versions:   1  2  3  4  5  6  7  8  9  

Terminal Aerodrome Forecast

956
FTUS42 KFFC 300154 AAA
TAFATL
TAF AMD
KATL 300154Z 3002/3106 22007KT P6SM BKN050
     FM300500 32015G25KT P6SM BKN025 OVC080
     FM300700 32013G22KT P6SM OVC020
     FM301200 32014G24KT P6SM SCT040
     FM301500 32014G24KT P6SM SCT150
     FM310000 33009KT P6SM SKC=

USA.gov is the U.S. government's official web portal to all federal, state and local government web resources and services.